sensor_id;sensor_type;location;lat;lon;timestamp;pressure;altitude;pressure_sealevel;temperature;humidity
56400;BME280;42298;53.638;9.876;2023-11-19T00:00:49;100737.41;;;6.17;82.59
56400;BME280;42298;53.638;9.876;2023-11-19T00:03:15;100737.69;;;6.14;82.54
56400;BME280;42298;53.638;9.876;2023-11-19T00:05:41;100720.28;;;6.11;82.60
56400;BME280;42298;53.638;9.876;2023-11-19T00:08:10;100711.09;;;6.15;82.42
56400;BME280;42298;53.638;9.876;2023-11-19T00:10:35;100701.22;;;6.17;82.23
56400;BME280;42298;53.638;9.876;2023-11-19T00:13:00;100699.69;;;6.15;82.46
56400;BME280;42298;53.638;9.876;2023-11-19T00:15:28;100690.94;;;6.14;82.01
56400;BME280;42298;53.638;9.876;2023-11-19T00:17:53;100684.53;;;6.17;82.17
56400;BME280;42298;53.638;9.876;2023-11-19T00:20:19;100684.53;;;6.17;82.05
56400;BME280;42298;53.638;9.876;2023-11-19T00:22:47;100675.88;;;6.15;82.20
56400;BME280;42298;53.638;9.876;2023-11-19T00:25:16;100666.13;;;6.15;82.66
56400;BME280;42298;53.638;9.876;2023-11-19T00:27:41;100658.09;;;6.17;82.12
56400;BME280;42298;53.638;9.876;2023-11-19T00:30:09;100642.50;;;6.14;82.35
56400;BME280;42298;53.638;9.876;2023-11-19T00:32:35;100628.16;;;6.16;82.43
56400;BME280;42298;53.638;9.876;2023-11-19T00:35:01;100616.06;;;6.14;82.70
56400;BME280;42298;53.638;9.876;2023-11-19T00:37:28;100620.81;;;6.20;82.83
56400;BME280;42298;53.638;9.876;2023-11-19T00:39:53;100613.53;;;6.22;82.44
56400;BME280;42298;53.638;9.876;2023-11-19T00:42:18;100610.91;;;6.22;82.70
56400;BME280;42298;53.638;9.876;2023-11-19T00:44:44;100606.47;;;6.22;82.45
56400;BME280;42298;53.638;9.876;2023-11-19T00:47:09;100603.66;;;6.14;82.33
56400;BME280;42298;53.638;9.876;2023-11-19T00:49:34;100598.78;;;6.19;82.37
56400;BME280;42298;53.638;9.876;2023-11-19T00:52:00;100597.25;;;6.17;82.76
56400;BME280;42298;53.638;9.876;2023-11-19T00:54:25;100598.09;;;6.17;82.80
56400;BME280;42298;53.638;9.876;2023-11-19T00:56:53;100594.06;;;6.23;82.88
56400;BME280;42298;53.638;9.876;2023-11-19T00:59:19;100589.38;;;6.27;82.57
56400;BME280;42298;53.638;9.876;2023-11-19T01:01:45;100573.50;;;6.27;82.53
56400;BME280;42298;53.638;9.876;2023-11-19T01:04:10;100567.91;;;6.30;82.48
56400;BME280;42298;53.638;9.876;2023-11-19T01:06:35;100552.88;;;6.20;82.60
56400;BME280;42298;53.638;9.876;2023-11-19T01:09:01;100543.00;;;6.22;82.75
56400;BME280;42298;53.638;9.876;2023-11-19T01:11:26;100539.22;;;6.25;82.48
56400;BME280;42298;53.638;9.876;2023-11-19T01:13:52;100535.34;;;6.29;82.68
56400;BME280;42298;53.638;9.876;2023-11-19T01:16:19;100518.63;;;6.29;82.60
56400;BME280;42298;53.638;9.876;2023-11-19T01:18:46;100522.38;;;6.26;82.37
56400;BME280;42298;53.638;9.876;2023-11-19T01:21:12;100516.25;;;6.26;82.42
56400;BME280;42298;53.638;9.876;2023-11-19T01:23:37;100515.16;;;6.28;82.74
56400;BME280;42298;53.638;9.876;2023-11-19T01:26:03;100505.25;;;6.30;82.71
56400;BME280;42298;53.638;9.876;2023-11-19T01:28:30;100493.16;;;6.28;83.02
56400;BME280;42298;53.638;9.876;2023-11-19T01:30:56;100484.94;;;6.31;82.46
56400;BME280;42298;53.638;9.876;2023-11-19T01:33:21;100484.94;;;6.31;82.97
56400;BME280;42298;53.638;9.876;2023-11-19T01:35:46;100469.75;;;6.33;82.72
56400;BME280;42298;53.638;9.876;2023-11-19T01:38:12;100469.63;;;6.34;82.68
56400;BME280;42298;53.638;9.876;2023-11-19T01:40:38;100458.22;;;6.34;82.93
56400;BME280;42298;53.638;9.876;2023-11-19T01:43:03;100450.13;;;6.35;82.72
56400;BME280;42298;53.638;9.876;2023-11-19T01:45:30;100456.28;;;6.36;82.41
56400;BME280;42298;53.638;9.876;2023-11-19T01:47:57;100457.94;;;6.37;82.96
56400;BME280;42298;53.638;9.876;2023-11-19T01:50:24;100451.81;;;6.36;82.65
56400;BME280;42298;53.638;9.876;2023-11-19T01:52:52;100454.59;;;6.35;82.54
56400;BME280;42298;53.638;9.876;2023-11-19T01:55:18;100445.00;;;6.34;82.85
56400;BME280;42298;53.638;9.876;2023-11-19T01:57:44;100443.75;;;6.38;82.62
56400;BME280;42298;53.638;9.876;2023-11-19T02:00:11;100442.63;;;6.40;82.85
56400;BME280;42298;53.638;9.876;2023-11-19T02:02:38;100429.66;;;6.37;82.89
56400;BME280;42298;53.638;9.876;2023-11-19T02:05:05;100416.16;;;6.40;82.75
56400;BME280;42298;53.638;9.876;2023-11-19T02:07:31;100406.53;;;6.39;82.95
56400;BME280;42298;53.638;9.876;2023-11-19T02:09:57;100409.19;;;6.39;82.49
56400;BME280;42298;53.638;9.876;2023-11-19T02:12:25;100403.38;;;6.36;83.03
56400;BME280;42298;53.638;9.876;2023-11-19T02:14:53;100394.44;;;6.37;82.84
56400;BME280;42298;53.638;9.876;2023-11-19T02:17:26;100388.88;;;6.40;83.09
56400;BME280;42298;53.638;9.876;2023-11-19T02:19:53;100393.88;;;6.43;82.99
56400;BME280;42298;53.638;9.876;2023-11-19T02:22:18;100387.59;;;6.44;82.71
56400;BME280;42298;53.638;9.876;2023-11-19T02:24:46;100385.13;;;6.42;83.24
56400;BME280;42298;53.638;9.876;2023-11-19T02:27:23;100369.38;;;6.41;83.06
56400;BME280;42298;53.638;9.876;2023-11-19T02:29:54;100360.47;;;6.42;83.67
56400;BME280;42298;53.638;9.876;2023-11-19T02:32:19;100360.47;;;6.42;82.79
56400;BME280;42298;53.638;9.876;2023-11-19T02:34:45;100351.69;;;6.41;83.11
56400;BME280;42298;53.638;9.876;2023-11-19T02:37:11;100350.03;;;6.40;83.04
56400;BME280;42298;53.638;9.876;2023-11-19T02:39:36;100345.13;;;6.46;83.00
56400;BME280;42298;53.638;9.876;2023-11-19T02:42:02;100335.38;;;6.46;83.01
56400;BME280;42298;53.638;9.876;2023-11-19T02:44:27;100331.22;;;6.43;83.03
56400;BME280;42298;53.638;9.876;2023-11-19T02:46:56;100323.28;;;6.43;83.24
56400;BME280;42298;53.638;9.876;2023-11-19T02:49:24;100305.31;;;6.47;83.74
56400;BME280;42298;53.638;9.876;2023-11-19T02:51:49;100298.34;;;6.46;83.17
56400;BME280;42298;53.638;9.876;2023-11-19T02:54:15;100293.06;;;6.46;83.57
56400;BME280;42298;53.638;9.876;2023-11-19T02:56:42;100276.22;;;6.47;83.55
56400;BME280;42298;53.638;9.876;2023-11-19T02:59:08;100288.00;;;6.53;83.47
56400;BME280;42298;53.638;9.876;2023-11-19T03:01:40;100276.06;;;6.49;83.40
56400;BME280;42298;53.638;9.876;2023-11-19T03:04:08;100266.56;;;6.56;83.64
56400;BME280;42298;53.638;9.876;2023-11-19T03:06:37;100264.31;;;6.61;83.45
56400;BME280;42298;53.638;9.876;2023-11-19T03:09:04;100257.19;;;6.61;83.90
56400;BME280;42298;53.638;9.876;2023-11-19T03:11:35;100251.91;;;6.61;83.61
56400;BME280;42298;53.638;9.876;2023-11-19T03:14:00;100258.13;;;6.70;83.59
56400;BME280;42298;53.638;9.876;2023-11-19T03:16:25;100240.84;;;6.76;83.68
56400;BME280;42298;53.638;9.876;2023-11-19T03:18:50;100239.16;;;6.75;83.43
56400;BME280;42298;53.638;9.876;2023-11-19T03:21:16;100238.03;;;6.77;83.83
56400;BME280;42298;53.638;9.876;2023-11-19T03:23:41;100218.91;;;6.83;84.06
56400;BME280;42298;53.638;9.876;2023-11-19T03:26:06;100224.06;;;6.85;83.99
56400;BME280;42298;53.638;9.876;2023-11-19T03:28:33;100218.78;;;6.85;83.86
56400;BME280;42298;53.638;9.876;2023-11-19T03:31:00;100218.47;;;6.88;83.71
56400;BME280;42298;53.638;9.876;2023-11-19T03:33:25;100197.69;;;6.93;83.78
56400;BME280;42298;53.638;9.876;2023-11-19T03:35:53;100210.63;;;6.96;84.07
56400;BME280;42298;53.638;9.876;2023-11-19T03:38:19;100206.47;;;6.94;84.06
56400;BME280;42298;53.638;9.876;2023-11-19T03:40:44;100201.66;;;6.97;84.02
56400;BME280;42298;53.638;9.876;2023-11-19T03:43:09;100200.56;;;7.00;83.87
56400;BME280;42298;53.638;9.876;2023-11-19T03:45:34;100194.13;;;7.02;83.88
56400;BME280;42298;53.638;9.876;2023-11-19T03:48:01;100192.22;;;7.13;84.25
56400;BME280;42298;53.638;9.876;2023-11-19T03:50:26;100199.56;;;7.19;84.02
56400;BME280;42298;53.638;9.876;2023-11-19T03:52:52;100195.94;;;7.20;84.09
56400;BME280;42298;53.638;9.876;2023-11-19T03:55:17;100195.31;;;7.26;84.29
56400;BME280;42298;53.638;9.876;2023-11-19T03:57:43;100196.69;;;7.30;84.17
56400;BME280;42298;53.638;9.876;2023-11-19T04:00:08;100187.44;;;7.34;84.19
56400;BME280;42298;53.638;9.876;2023-11-19T04:02:36;100188.50;;;7.41;84.41
56400;BME280;42298;53.638;9.876;2023-11-19T04:05:02;100178.97;;;7.49;83.85
56400;BME280;42298;53.638;9.876;2023-11-19T04:07:29;100183.81;;;7.53;84.05
56400;BME280;42298;53.638;9.876;2023-11-19T04:09:55;100179.19;;;7.55;84.17
56400;BME280;42298;53.638;9.876;2023-11-19T04:12:20;100169.09;;;7.59;84.28
56400;BME280;42298;53.638;9.876;2023-11-19T04:14:47;100170.31;;;7.64;84.33
56400;BME280;42298;53.638;9.876;2023-11-19T04:17:15;100166.66;;;7.65;84.32
56400;BME280;42298;53.638;9.876;2023-11-19T04:19:40;100168.31;;;7.66;84.62
56400;BME280;42298;53.638;9.876;2023-11-19T04:22:07;100155.28;;;7.73;84.37
56400;BME280;42298;53.638;9.876;2023-11-19T04:24:33;100151.16;;;7.79;84.26
56400;BME280;42298;53.638;9.876;2023-11-19T04:26:59;100160.00;;;7.87;84.56
56400;BME280;42298;53.638;9.876;2023-11-19T04:29:24;100155.69;;;7.86;84.58
56400;BME280;42298;53.638;9.876;2023-11-19T04:31:49;100145.28;;;7.93;84.40
56400;BME280;42298;53.638;9.876;2023-11-19T04:34:15;100152.09;;;7.96;84.26
56400;BME280;42298;53.638;9.876;2023-11-19T04:36:40;100151.63;;;8.00;84.35
56400;BME280;42298;53.638;9.876;2023-11-19T04:39:05;100145.97;;;8.03;84.26
56400;BME280;42298;53.638;9.876;2023-11-19T04:41:35;100154.13;;;8.10;84.31
56400;BME280;42298;53.638;9.876;2023-11-19T04:44:00;100139.91;;;8.11;84.67
56400;BME280;42298;53.638;9.876;2023-11-19T04:46:26;100144.19;;;8.12;84.36
56400;BME280;42298;53.638;9.876;2023-11-19T04:48:51;100133.59;;;8.12;84.97
56400;BME280;42298;53.638;9.876;2023-11-19T04:51:16;100141.25;;;8.15;84.72
56400;BME280;42298;53.638;9.876;2023-11-19T04:53:42;100137.59;;;8.16;84.79
56400;BME280;42298;53.638;9.876;2023-11-19T04:56:08;100132.31;;;8.24;85.25
56400;BME280;42298;53.638;9.876;2023-11-19T04:58:34;100134.34;;;8.31;84.91
56400;BME280;42298;53.638;9.876;2023-11-19T05:01:01;100132.72;;;8.38;85.11
56400;BME280;42298;53.638;9.876;2023-11-19T05:03:26;100124.13;;;8.44;84.88
56400;BME280;42298;53.638;9.876;2023-11-19T05:05:51;100124.13;;;8.52;85.50
56400;BME280;42298;53.638;9.876;2023-11-19T05:08:17;100118.19;;;8.58;85.41
56400;BME280;42298;53.638;9.876;2023-11-19T05:10:42;100118.22;;;8.66;85.39
56400;BME280;42298;53.638;9.876;2023-11-19T05:13:07;100119.06;;;8.75;85.28
56400;BME280;42298;53.638;9.876;2023-11-19T05:15:33;100116.41;;;8.83;84.94
56400;BME280;42298;53.638;9.876;2023-11-19T05:17:58;100112.09;;;8.90;85.64
56400;BME280;42298;53.638;9.876;2023-11-19T05:20:23;100098.47;;;8.94;85.29
56400;BME280;42298;53.638;9.876;2023-11-19T05:22:49;100099.31;;;9.02;86.04
56400;BME280;42298;53.638;9.876;2023-11-19T05:25:16;100085.53;;;9.07;85.60
56400;BME280;42298;53.638;9.876;2023-11-19T05:27:42;100092.19;;;9.11;85.61
56400;BME280;42298;53.638;9.876;2023-11-19T05:30:08;100094.00;;;9.19;86.04
56400;BME280;42298;53.638;9.876;2023-11-19T05:32:35;100088.69;;;9.27;85.85
56400;BME280;42298;53.638;9.876;2023-11-19T05:35:00;100087.00;;;9.34;85.84
56400;BME280;42298;53.638;9.876;2023-11-19T05:37:26;100090.00;;;9.39;85.68
56400;BME280;42298;53.638;9.876;2023-11-19T05:39:52;100091.34;;;9.43;86.07
56400;BME280;42298;53.638;9.876;2023-11-19T05:42:17;100096.28;;;9.55;85.94
56400;BME280;42298;53.638;9.876;2023-11-19T05:44:43;100100.41;;;9.65;85.71
56400;BME280;42298;53.638;9.876;2023-11-19T05:47:08;100091.94;;;9.70;85.90
56400;BME280;42298;53.638;9.876;2023-11-19T05:49:33;100087.59;;;9.77;85.97
56400;BME280;42298;53.638;9.876;2023-11-19T05:51:59;100093.72;;;9.78;85.82
56400;BME280;42298;53.638;9.876;2023-11-19T05:54:24;100099.84;;;9.86;86.06
56400;BME280;42298;53.638;9.876;2023-11-19T05:56:50;100092.84;;;9.93;85.61
56400;BME280;42298;53.638;9.876;2023-11-19T05:59:19;100091.66;;;9.96;85.93
56400;BME280;42298;53.638;9.876;2023-11-19T06:01:44;100098.44;;;10.07;85.87
56400;BME280;42298;53.638;9.876;2023-11-19T06:04:09;100088.78;;;10.14;86.34
56400;BME280;42298;53.638;9.876;2023-11-19T06:06:36;100091.66;;;10.35;85.71
56400;BME280;42298;53.638;9.876;2023-11-19T06:09:01;100084.50;;;10.36;85.96
56400;BME280;42298;53.638;9.876;2023-11-19T06:11:27;100074.06;;;10.34;85.68
56400;BME280;42298;53.638;9.876;2023-11-19T06:13:53;100082.34;;;10.40;86.35
56400;BME280;42298;53.638;9.876;2023-11-19T06:16:18;100089.13;;;10.42;86.09
56400;BME280;42298;53.638;9.876;2023-11-19T06:18:44;100083.81;;;10.42;86.14
56400;BME280;42298;53.638;9.876;2023-11-19T06:21:09;100090.63;;;10.45;86.05
56400;BME280;42298;53.638;9.876;2023-11-19T06:23:35;100082.75;;;10.51;85.90
56400;BME280;42298;53.638;9.876;2023-11-19T06:26:00;100086.03;;;10.62;86.21
56400;BME280;42298;53.638;9.876;2023-11-19T06:28:26;100093.50;;;10.66;85.99
56400;BME280;42298;53.638;9.876;2023-11-19T06:30:51;100088.81;;;10.68;86.06
56400;BME280;42298;53.638;9.876;2023-11-19T06:33:16;100084.16;;;10.70;86.68
56400;BME280;42298;53.638;9.876;2023-11-19T06:35:42;100084.44;;;10.75;86.15
56400;BME280;42298;53.638;9.876;2023-11-19T06:38:07;100082.91;;;10.81;85.85
56400;BME280;42298;53.638;9.876;2023-11-19T06:40:33;100087.88;;;10.84;86.42
56400;BME280;42298;53.638;9.876;2023-11-19T06:43:00;100079.53;;;10.87;86.23
56400;BME280;42298;53.638;9.876;2023-11-19T06:45:25;100088.63;;;10.93;85.74
56400;BME280;42298;53.638;9.876;2023-11-19T06:47:50;100083.59;;;10.98;85.87
56400;BME280;42298;53.638;9.876;2023-11-19T06:50:16;100079.75;;;11.01;86.09
56400;BME280;42298;53.638;9.876;2023-11-19T06:52:41;100079.94;;;10.99;86.03
56400;BME280;42298;53.638;9.876;2023-11-19T06:55:07;100092.53;;;11.05;85.93
56400;BME280;42298;53.638;9.876;2023-11-19T06:57:32;100105.78;;;11.13;86.01
56400;BME280;42298;53.638;9.876;2023-11-19T06:59:58;100106.25;;;11.17;86.35
56400;BME280;42298;53.638;9.876;2023-11-19T07:02:24;100095.22;;;11.20;86.11
56400;BME280;42298;53.638;9.876;2023-11-19T07:04:50;100106.00;;;11.27;85.79
56400;BME280;42298;53.638;9.876;2023-11-19T07:07:15;100101.53;;;11.27;85.81
56400;BME280;42298;53.638;9.876;2023-11-19T07:09:42;100114.47;;;11.30;86.01
56400;BME280;42298;53.638;9.876;2023-11-19T07:12:08;100115.94;;;11.33;86.02
56400;BME280;42298;53.638;9.876;2023-11-19T07:14:33;100109.13;;;11.30;86.20
56400;BME280;42298;53.638;9.876;2023-11-19T07:16:59;100108.88;;;11.25;85.93
56400;BME280;42298;53.638;9.876;2023-11-19T07:19:25;100099.41;;;11.23;86.13
56400;BME280;42298;53.638;9.876;2023-11-19T07:21:50;100107.19;;;11.24;85.71
56400;BME280;42298;53.638;9.876;2023-11-19T07:24:16;100104.72;;;11.23;85.83
56400;BME280;42298;53.638;9.876;2023-11-19T07:26:46;100110.50;;;11.26;85.82
56400;BME280;42298;53.638;9.876;2023-11-19T07:29:13;100106.19;;;11.25;85.55
56400;BME280;42298;53.638;9.876;2023-11-19T07:31:40;100106.97;;;11.34;85.62
56400;BME280;42298;53.638;9.876;2023-11-19T07:55:55;100141.19;;;11.45;85.48
56400;BME280;42298;53.638;9.876;2023-11-19T07:58:20;100129.78;;;11.51;85.47
56400;BME280;42298;53.638;9.876;2023-11-19T08:00:46;100126.09;;;11.52;85.56
56400;BME280;42298;53.638;9.876;2023-11-19T08:03:11;100132.84;;;11.63;85.49
56400;BME280;42298;53.638;9.876;2023-11-19T08:05:37;100136.31;;;11.64;85.20
56400;BME280;42298;53.638;9.876;2023-11-19T08:08:02;100129.50;;;11.61;84.93
56400;BME280;42298;53.638;9.876;2023-11-19T08:10:27;100142.69;;;11.63;85.32
56400;BME280;42298;53.638;9.876;2023-11-19T08:12:54;100134.84;;;11.61;85.19
56400;BME280;42298;53.638;9.876;2023-11-19T08:15:19;100142.22;;;11.74;85.04
56400;BME280;42298;53.638;9.876;2023-11-19T08:17:44;100144.59;;;11.69;84.94
56400;BME280;42298;53.638;9.876;2023-11-19T08:20:10;100149.09;;;11.68;85.21
56400;BME280;42298;53.638;9.876;2023-11-19T08:22:39;100149.41;;;11.73;85.09
56400;BME280;42298;53.638;9.876;2023-11-19T08:25:07;100155.09;;;11.70;85.19
56400;BME280;42298;53.638;9.876;2023-11-19T08:27:33;100152.97;;;11.66;84.69
56400;BME280;42298;53.638;9.876;2023-11-19T08:29:59;100147.25;;;11.69;84.74
56400;BME280;42298;53.638;9.876;2023-11-19T08:32:25;100157.41;;;11.73;84.79
56400;BME280;42298;53.638;9.876;2023-11-19T08:34:51;100151.88;;;11.75;84.77
56400;BME280;42298;53.638;9.876;2023-11-19T08:37:16;100147.75;;;11.72;84.85
56400;BME280;42298;53.638;9.876;2023-11-19T08:39:46;100157.41;;;11.73;84.57
56400;BME280;42298;53.638;9.876;2023-11-19T08:42:11;100163.38;;;11.75;84.67
56400;BME280;42298;53.638;9.876;2023-11-19T08:44:37;100167.53;;;11.78;84.47
56400;BME280;42298;53.638;9.876;2023-11-19T08:47:02;100167.53;;;11.78;84.37
56400;BME280;42298;53.638;9.876;2023-11-19T08:49:28;100171.03;;;11.78;84.57
56400;BME280;42298;53.638;9.876;2023-11-19T08:51:53;100174.78;;;11.84;84.20
56400;BME280;42298;53.638;9.876;2023-11-19T08:54:18;100170.66;;;11.81;84.13
56400;BME280;42298;53.638;9.876;2023-11-19T08:56:46;100171.03;;;11.78;84.23
56400;BME280;42298;53.638;9.876;2023-11-19T08:59:12;100164.88;;;11.78;84.30
56400;BME280;42298;53.638;9.876;2023-11-19T09:01:37;100164.06;;;11.92;83.84
56400;BME280;42298;53.638;9.876;2023-11-19T09:04:03;100177.25;;;11.94;83.83
56400;BME280;42298;53.638;9.876;2023-11-19T09:06:29;100187.09;;;11.93;83.85
56400;BME280;42298;53.638;9.876;2023-11-19T09:08:54;100187.44;;;11.90;83.72
56400;BME280;42298;53.638;9.876;2023-11-19T09:11:25;100184.47;;;11.85;83.86
56400;BME280;42298;53.638;9.876;2023-11-19T09:13:50;100189.13;;;11.91;83.66
56400;BME280;42298;53.638;9.876;2023-11-19T09:16:16;100191.97;;;11.90;83.50
56400;BME280;42298;53.638;9.876;2023-11-19T09:18:41;100200.44;;;11.93;83.58
56400;BME280;42298;53.638;9.876;2023-11-19T09:21:12;100187.38;;;11.98;83.48
56400;BME280;42298;53.638;9.876;2023-11-19T09:23:38;100188.56;;;11.96;83.37
56400;BME280;42298;53.638;9.876;2023-11-19T09:26:05;100187.44;;;11.90;83.23
56400;BME280;42298;53.638;9.876;2023-11-19T09:28:31;100182.38;;;11.95;83.28
56400;BME280;42298;53.638;9.876;2023-11-19T09:30:56;100193.16;;;12.02;83.35
56400;BME280;42298;53.638;9.876;2023-11-19T09:33:21;100203.09;;;12.08;82.90
56400;BME280;42298;53.638;9.876;2023-11-19T09:35:47;100197.59;;;12.10;82.79
56400;BME280;42298;53.638;9.876;2023-11-19T09:38:14;100188.94;;;12.08;82.78
56400;BME280;42298;53.638;9.876;2023-11-19T09:40:40;100191.88;;;12.13;82.51
56400;BME280;42298;53.638;9.876;2023-11-19T09:43:06;100189.75;;;12.08;82.36
56400;BME280;42298;53.638;9.876;2023-11-19T09:45:43;100196.28;;;12.06;82.32
56400;BME280;42298;53.638;9.876;2023-11-19T09:48:12;100203.66;;;12.18;82.04
56400;BME280;42298;53.638;9.876;2023-11-19T09:50:38;100206.34;;;12.18;82.12
56400;BME280;42298;53.638;9.876;2023-11-19T09:53:04;100203.94;;;12.24;81.72
56400;BME280;42298;53.638;9.876;2023-11-19T09:55:31;100188.09;;;12.22;81.86
56400;BME280;42298;53.638;9.876;2023-11-19T09:57:57;100183.56;;;12.37;81.38
56400;BME280;42298;53.638;9.876;2023-11-19T10:00:26;100188.91;;;12.37;81.24
56400;BME280;42298;53.638;9.876;2023-11-19T10:02:54;100184.84;;;12.41;80.76
56400;BME280;42298;53.638;9.876;2023-11-19T10:05:20;100198.94;;;12.50;80.84
56400;BME280;42298;53.638;9.876;2023-11-19T10:07:48;100194.53;;;12.42;80.68
56400;BME280;42298;53.638;9.876;2023-11-19T10:10:14;100205.41;;;12.41;80.59
56400;BME280;42298;53.638;9.876;2023-11-19T10:12:46;100200.78;;;12.35;80.51
56400;BME280;42298;53.638;9.876;2023-11-19T10:15:21;100214.59;;;12.24;80.19
56400;BME280;42298;53.638;9.876;2023-11-19T10:17:47;100209.66;;;12.20;79.94
56400;BME280;42298;53.638;9.876;2023-11-19T10:20:13;100208.19;;;12.18;79.99
56400;BME280;42298;53.638;9.876;2023-11-19T10:22:38;100209.91;;;12.11;80.08
56400;BME280;42298;53.638;9.876;2023-11-19T10:25:23;100216.66;;;12.07;79.99
56400;BME280;42298;53.638;9.876;2023-11-19T10:27:50;100209.81;;;12.04;80.41
56400;BME280;42298;53.638;9.876;2023-11-19T10:30:26;100216.81;;;12.05;80.24
56400;BME280;42298;53.638;9.876;2023-11-19T10:33:08;100215.25;;;12.11;80.37
56400;BME280;42298;53.638;9.876;2023-11-19T10:35:55;100222.25;;;12.12;79.97
56400;BME280;42298;53.638;9.876;2023-11-19T10:38:25;100213.97;;;12.07;80.48
56400;BME280;42298;53.638;9.876;2023-11-19T10:40:51;100212.47;;;12.04;80.34
56400;BME280;42298;53.638;9.876;2023-11-19T10:43:18;100217.38;;;12.00;80.45
56400;BME280;42298;53.638;9.876;2023-11-19T10:45:43;100215.34;;;12.03;80.32
56400;BME280;42298;53.638;9.876;2023-11-19T10:48:09;100219.38;;;11.98;80.41
56400;BME280;42298;53.638;9.876;2023-11-19T10:50:38;100223.69;;;11.99;80.78
56400;BME280;42298;53.638;9.876;2023-11-19T10:53:05;100228.03;;;12.00;80.86
56400;BME280;42298;53.638;9.876;2023-11-19T10:55:32;100225.38;;;12.00;80.69
56400;BME280;42298;53.638;9.876;2023-11-19T11:00:33;100225.66;;;12.06;81.06
56400;BME280;42298;53.638;9.876;2023-11-19T11:03:01;100224.66;;;12.07;81.08
56400;BME280;42298;53.638;9.876;2023-11-19T11:05:29;100219.00;;;12.01;80.99
56400;BME280;42298;53.638;9.876;2023-11-19T11:07:57;100214.50;;;12.02;81.02
56400;BME280;42298;53.638;9.876;2023-11-19T11:10:26;100226.84;;;12.03;81.21
56400;BME280;42298;53.638;9.876;2023-11-19T11:12:52;100227.13;;;12.08;81.35
56400;BME280;42298;53.638;9.876;2023-11-19T11:15:25;100228.59;;;12.11;81.21
56400;BME280;42298;53.638;9.876;2023-11-19T11:17:54;100224.28;;;12.10;81.11
56400;BME280;42298;53.638;9.876;2023-11-19T11:20:22;100214.59;;;12.09;81.29
56400;BME280;42298;53.638;9.876;2023-11-19T11:28:52;100232.09;;;12.41;81.11
56400;BME280;42298;53.638;9.876;2023-11-19T11:39:39;100236.25;;;12.43;80.38
56400;BME280;42298;53.638;9.876;2023-11-19T11:42:31;100240.28;;;12.39;80.67
56400;BME280;42298;53.638;9.876;2023-11-19T11:45:07;100237.34;;;12.34;80.38
56400;BME280;42298;53.638;9.876;2023-11-19T11:50:17;100233.47;;;12.22;80.69
56400;BME280;42298;53.638;9.876;2023-11-19T11:58:20;100222.44;;;12.10;80.94
56400;BME280;42298;53.638;9.876;2023-11-19T12:00:51;100226.22;;;12.16;81.16
56400;BME280;42298;53.638;9.876;2023-11-19T12:03:20;100220.97;;;12.23;81.24
56400;BME280;42298;53.638;9.876;2023-11-19T12:05:47;100226.94;;;12.39;81.49
56400;BME280;42298;53.638;9.876;2023-11-19T12:08:14;100217.94;;;12.40;81.51
56400;BME280;42298;53.638;9.876;2023-11-19T12:10:48;100221.03;;;12.44;81.32
56400;BME280;42298;53.638;9.876;2023-11-19T12:13:16;100223.09;;;12.42;81.50
56400;BME280;42298;53.638;9.876;2023-11-19T12:18:29;100218.94;;;12.39;81.54
56400;BME280;42298;53.638;9.876;2023-11-19T12:20:55;100214.53;;;12.47;81.41
56400;BME280;42298;53.638;9.876;2023-11-19T12:23:24;100212.41;;;12.42;81.44
56400;BME280;42298;53.638;9.876;2023-11-19T12:25:51;100212.84;;;12.46;81.56
56400;BME280;42298;53.638;9.876;2023-11-19T12:28:17;100216.56;;;12.45;81.40
56400;BME280;42298;53.638;9.876;2023-11-19T12:30:43;100223.53;;;12.46;81.09
56400;BME280;42298;53.638;9.876;2023-11-19T12:33:09;100219.56;;;12.41;81.07
56400;BME280;42298;53.638;9.876;2023-11-19T12:35:45;100232.84;;;12.35;80.89
56400;BME280;42298;53.638;9.876;2023-11-19T12:38:24;100230.38;;;12.33;80.85
56400;BME280;42298;53.638;9.876;2023-11-19T12:41:09;100234.69;;;12.34;80.73
56400;BME280;42298;53.638;9.876;2023-11-19T12:43:36;100222.91;;;12.29;80.77
56400;BME280;42298;53.638;9.876;2023-11-19T12:46:21;100234.22;;;12.31;80.50
56400;BME280;42298;53.638;9.876;2023-11-19T12:48:48;100224.38;;;12.31;80.30
56400;BME280;42298;53.638;9.876;2023-11-19T12:51:13;100225.28;;;12.38;80.58
56400;BME280;42298;53.638;9.876;2023-11-19T12:53:49;100230.63;;;12.38;80.34
56400;BME280;42298;53.638;9.876;2023-11-19T12:56:19;100223.63;;;12.37;80.22
56400;BME280;42298;53.638;9.876;2023-11-19T12:58:44;100216.00;;;12.34;80.04
56400;BME280;42298;53.638;9.876;2023-11-19T13:01:15;100220.34;;;12.35;80.48
56400;BME280;42298;53.638;9.876;2023-11-19T13:03:41;100214.16;;;12.35;80.14
56400;BME280;42298;53.638;9.876;2023-11-19T13:06:08;100210.09;;;12.39;80.37
56400;BME280;42298;53.638;9.876;2023-11-19T13:08:49;100208.06;;;12.41;80.21
56400;BME280;42298;53.638;9.876;2023-11-19T13:11:33;100205.56;;;12.39;80.08
56400;BME280;42298;53.638;9.876;2023-11-19T13:14:00;100210.09;;;12.39;79.88
56400;BME280;42298;53.638;9.876;2023-11-19T13:16:27;100209.09;;;12.40;80.03
56400;BME280;42298;53.638;9.876;2023-11-19T13:18:53;100200.53;;;12.45;80.33
56400;BME280;42298;53.638;9.876;2023-11-19T13:21:18;100208.97;;;12.48;80.03
56400;BME280;42298;53.638;9.876;2023-11-19T13:23:45;100199.31;;;12.47;80.17
56400;BME280;42298;53.638;9.876;2023-11-19T13:26:11;100202.16;;;12.46;80.08
56400;BME280;42298;53.638;9.876;2023-11-19T13:28:37;100203.94;;;12.38;79.98
56400;BME280;42298;53.638;9.876;2023-11-19T13:31:03;100204.75;;;12.39;79.73
56400;BME280;42298;53.638;9.876;2023-11-19T13:33:28;100196.09;;;12.37;80.06
56400;BME280;42298;53.638;9.876;2023-11-19T13:35:55;100196.81;;;12.31;79.84
56400;BME280;42298;53.638;9.876;2023-11-19T13:38:20;100202.38;;;12.29;79.67
56400;BME280;42298;53.638;9.876;2023-11-19T13:40:48;100209.19;;;12.32;79.78
56400;BME280;42298;53.638;9.876;2023-11-19T13:43:13;100193.63;;;12.35;79.57